| time (UTC) | temp C | wind direction | speed KPH | gust KPH | rain 1hr cm | rain 24hr cm | rain mn cm | humidity % | barometer mb |
| 20260507141512 | 1 | 316 | 3.2 | 4.8 | 0.00 | 0.03 | 0.03 | 80 | 1016.2 |
| 20260507140013 | 1 | 319 | 1.6 | 6.4 | 0.00 | 0.03 | 0.03 | 79 | 1016.1 |
| 20260507134510 | 1 | 124 | 0.0 | 3.2 | 0.00 | 0.03 | 0.03 | 84 | 1016.1 |
| 20260507133009 | 1 | 110 | 1.6 | 8.0 | 0.00 | 0.03 | 0.03 | 87 | 1016.0 |
| 20260507131516 | 0 | 330 | 4.8 | 11.3 | 0.00 | 0.03 | 0.03 | 90 | 1016.0 |
| 20260507130012 | 0 | 307 | 9.7 | 27.4 | 0.00 | 0.03 | 0.03 | 90 | 1016.0 |
| 20260507124504 | 1 | 293 | 17.7 | 24.1 | 0.00 | 0.03 | 0.03 | 75 | 1015.7 |
| 20260507123004 | 1 | 276 | 8.0 | 14.5 | 0.00 | 0.03 | 0.03 | 70 | 1015.5 |
| 20260507121502 | 1 | 272 | 3.2 | 8.0 | 0.00 | 0.03 | 0.03 | 69 | 1015.6 |
| 20260507120001 | 1 | 271 | 0.0 | 8.0 | 0.00 | 0.05 | 0.03 | 69 | 1015.5 |
| 20260507114604 | 2 | 319 | 0.0 | 4.8 | 0.00 | 0.05 | 0.03 | 68 | 1015.4 |
| 20260507113101 | 2 | 47 | 0.0 | 3.2 | 0.00 | 0.05 | 0.03 | 67 | 1015.3 |
| 20260507111556 | 1 | 58 | 4.8 | 9.7 | 0.00 | 0.05 | 0.03 | 68 | 1015.2 |
| 20260507110054 | 2 | 82 | 1.6 | 6.4 | 0.00 | 0.05 | 0.03 | 70 | 1015.2 |
| 20260507104551 | 1 | 79 | 3.2 | 8.0 | 0.00 | 0.05 | 0.03 | 70 | 1015.1 |
| 20260507103050 | 2 | 105 | 3.2 | 8.0 | 0.00 | 0.05 | 0.03 | 70 | 1015.0 |
| 20260507101549 | 1 | 63 | 4.8 | 9.7 | 0.00 | 0.05 | 0.03 | 73 | 1015.0 |
| 20260507100047 | 1 | 79 | 6.4 | 11.3 | 0.00 | 0.08 | 0.03 | 73 | 1014.9 |
| 20260507094541 | 1 | 180 | 3.2 | 8.0 | 0.00 | 0.08 | 0.03 | 73 | 1014.9 |
| 20260507093045 | 0 | 84 | 3.2 | 12.9 | 0.00 | 0.08 | 0.03 | 75 | 1014.8 |
| 20260507091535 | 0 | 77 | 6.4 | 12.9 | 0.00 | 0.08 | 0.03 | 77 | 1014.8 |
| 20260507090034 | 0 | 180 | 8.0 | 14.5 | 0.00 | 0.13 | 0.03 | 77 | 1014.7 |
| 20260507084532 | 0 | 106 | 9.7 | 16.1 | 0.00 | 0.13 | 0.03 | 77 | 1014.6 |
| 20260507083032 | 0 | 180 | 12.9 | 16.1 | 0.03 | 0.13 | 0.03 | 75 | 1014.5 |
| 20260507081531 | 0 | 180 | 6.4 | 9.7 | 0.03 | 0.13 | 0.03 | 73 | 1014.4 |
| 20260507080037 | 0 | 180 | 8.0 | 11.3 | 0.03 | 0.25 | 0.03 | 72 | 1014.2 |
| 20260507074528 | -1 | 180 | 9.7 | 12.9 | 0.03 | 0.25 | 0.03 | 74 | 1014.1 |
| 20260507073026 | -1 | 180 | 9.7 | 14.5 | 0.00 | 0.23 | 0.00 | 74 | 1014.0 |
| 20260507071554 | 0 | 97 | 8.0 | 12.9 | 0.00 | 0.23 | 0.00 | 72 | 1013.8 |
| 20260507070021 | -1 | 180 | 9.7 | 14.5 | 0.00 | 0.25 | 0.00 | 76 | 1013.8 |
| 20260507064522 | -1 | 180 | 11.3 | 17.7 | 0.00 | 0.25 | 0.00 | 75 | 1013.6 |
| 20260507063019 | -1 | 84 | 12.9 | 19.3 | 0.00 | 0.25 | 0.00 | 73 | 1013.4 |
| 20260507061518 | -1 | 180 | 12.9 | 17.7 | 0.00 | 0.25 | 0.00 | 73 | 1013.4 |
| 20260507060017 | -1 | 180 | 4.8 | 16.1 | 0.00 | 0.25 | 0.00 | 73 | 1013.5 |
| 20260507054515 | -1 | 180 | 8.0 | 12.9 | 0.00 | 0.25 | 0.00 | 78 | 1013.4 |
| 20260507053014 | -1 | 180 | 9.7 | 12.9 | 0.00 | 0.25 | 0.00 | 76 | 1013.2 |
| 20260507051519 | -1 | 326 | 3.2 | 9.7 | 0.00 | 0.25 | 0.00 | 75 | 1013.3 |
| 20260507050012 | -1 | 63 | 4.8 | 11.3 | 0.00 | 0.25 | 0.00 | 77 | 1013.2 |
| 20260507044508 | -1 | 84 | 9.7 | 12.9 | 0.00 | 0.25 | 0.00 | 77 | 1013.1 |
| 20260507043010 | -2 | 76 | 14.5 | 17.7 | 0.00 | 0.25 | 0.00 | 78 | 1013.0 |
| 20260507041506 | -1 | 91 | 11.3 | 16.1 | 0.00 | 0.25 | 0.00 | 79 | 1013.0 |
| 20260507040005 | -2 | 77 | 11.3 | 16.1 | 0.00 | 0.25 | 0.00 | 79 | 1012.9 |
| 20260507034507 | -2 | 180 | 11.3 | 16.1 | 0.00 | 0.25 | 0.00 | 81 | 1012.9 |
| 20260507033010 | -3 | 180 | 11.3 | 14.5 | 0.00 | 0.25 | 0.00 | 85 | 1012.9 |
| 20260507031501 | -3 | 93 | 9.7 | 14.5 | 0.00 | 0.25 | 0.00 | 85 | 1012.7 |
| 20260507030100 | -3 | 180 | 9.7 | 11.3 | 0.00 | 0.25 | 0.00 | 87 | 1012.6 |
| 20260507024604 | -2 | 61 | 1.6 | 11.3 | 0.00 | 0.25 | 0.00 | 85 | 1012.6 |
| 20260507023054 | -2 | 44 | 3.2 | 14.5 | 0.00 | 0.25 | 0.00 | 88 | 1012.4 |
| 20260507021552 | -2 | 180 | 11.3 | 14.5 | 0.00 | 0.25 | 0.00 | 90 | 1012.4 |
| 20260507020052 | -2 | 180 | 12.9 | 16.1 | 0.00 | 0.25 | 0.00 | 90 | 1012.3 |
| 20260507014559 | -2 | 180 | 9.7 | 16.1 | 0.00 | 0.25 | 0.00 | 90 | 1012.2 |
| 20260507013049 | -2 | 110 | 11.3 | 14.5 | 0.00 | 0.25 | 0.00 | 89 | 1012.0 |
| 20260507011545 | -2 | 180 | 9.7 | 14.5 | 0.00 | 0.25 | 0.00 | 89 | 1012.0 |
| 20260507010041 | -2 | 180 | 8.0 | 14.5 | 0.00 | 0.25 | 0.00 | 88 | 1011.8 |
| 20260507004540 | -2 | 180 | 8.0 | 14.5 | 0.00 | 0.25 | 0.00 | 85 | 1011.7 |
| 20260507003035 | -1 | 72 | 11.3 | 17.7 | 0.00 | 0.25 | 0.00 | 86 | 1011.7 |
| 20260507001538 | -1 | 180 | 16.1 | 25.7 | 0.00 | 0.25 | 0.00 | 84 | 1011.5 |
| 20260507000032 | -1 | 180 | 12.9 | 16.1 | 0.00 | 0.25 | 0.00 | 81 | 1011.4 |
| 20260506234530 | -1 | 77 | 12.9 | 16.1 | 0.00 | 0.25 | 0.00 | 83 | 1011.4 |
| 20260506233029 | -1 | 77 | 14.5 | 17.7 | 0.00 | 0.25 | 0.00 | 80 | 1011.2 |
| 20260506231526 | -1 | 180 | 14.5 | 17.7 | 0.00 | 0.25 | 0.00 | 78 | 1011.1 |
| 20260506230024 | -1 | 180 | 11.3 | 16.1 | 0.00 | 0.25 | 0.00 | 80 | 1011.0 |
| 20260506224523 | -1 | 180 | 8.0 | 14.5 | 0.00 | 0.25 | 0.00 | 81 | 1010.9 |
| 20260506223021 | -1 | 180 | 11.3 | 14.5 | 0.00 | 0.25 | 0.00 | 82 | 1010.8 |
| 20260506221518 | -1 | 180 | 12.9 | 16.1 | 0.00 | 0.25 | 0.00 | 83 | 1010.9 |
| 20260506220030 | -1 | 180 | 14.5 | 17.7 | 0.00 | 0.25 | 0.25 | 84 | 1010.8 |
| 20260506214514 | -1 | 180 | 12.9 | 16.1 | 0.00 | 0.25 | 0.25 | 83 | 1010.8 |
| 20260506213011 | -1 | 70 | 14.5 | 20.9 | 0.00 | 0.25 | 0.25 | 85 | 1010.7 |
| 20260506211509 | -1 | 75 | 11.3 | 12.9 | 0.00 | 0.25 | 0.25 | 88 | 1010.7 |
| 20260506210013 | -1 | 180 | 8.0 | 11.3 | 0.00 | 0.25 | 0.25 | 86 | 1010.6 |
| 20260506204509 | -1 | 73 | 6.4 | 11.3 | 0.00 | 0.25 | 0.25 | 87 | 1010.6 |
| 20260506203008 | -1 | 65 | 9.7 | 12.9 | 0.00 | 0.25 | 0.25 | 91 | 1010.5 |
| 20260506201506 | -1 | 176 | 0.0 | 3.2 | 0.00 | 0.25 | 0.25 | 93 | 1010.4 |
| 20260506200005 | -1 | 251 | 0.0 | 3.2 | 0.00 | 0.25 | 0.25 | 93 | 1010.5 |
| 20260506194504 | 0 | 251 | 0.0 | 3.2 | 0.00 | 0.25 | 0.25 | 93 | 1010.4 |
| 20260506193002 | 0 | 251 | 0.0 | 3.2 | 0.00 | 0.25 | 0.25 | 93 | 1010.2 |
| 20260506191501 | 0 | 251 | 0.0 | 3.2 | 0.00 | 0.25 | 0.25 | 93 | 1010.2 |
| 20260506190100 | 0 | 251 | 1.6 | 3.2 | 0.00 | 0.28 | 0.25 | 93 | 1010.2 |
| 20260506184600 | 0 | 251 | 3.2 | 6.4 | 0.00 | 0.28 | 0.25 | 93 | 1010.2 |
| 20260506183115 | 0 | 241 | 4.8 | 9.7 | 0.00 | 0.28 | 0.25 | 92 | 1010.1 |
| 20260506181602 | 0 | 245 | 4.8 | 8.0 | 0.00 | 0.28 | 0.25 | 90 | 1010.0 |
| 20260506180114 | 0 | 207 | 4.8 | 6.4 | 0.00 | 0.33 | 0.25 | 88 | 1009.9 |
| 20260506174556 | 0 | 271 | 6.4 | 9.7 | 0.00 | 0.33 | 0.25 | 88 | 1009.9 |
| 20260506173129 | 0 | 302 | 4.8 | 9.7 | 0.00 | 0.33 | 0.25 | 89 | 1009.9 |
| 20260506171554 | 0 | 330 | 3.2 | 6.4 | 0.00 | 0.33 | 0.25 | 88 | 1009.8 |
| 20260506170053 | 0 | 318 | 4.8 | 9.7 | 0.00 | 0.33 | 0.25 | 90 | 1009.7 |
| 20260506164553 | 0 | 320 | 4.8 | 8.0 | 0.00 | 0.33 | 0.25 | 89 | 1009.7 |
| 20260506163056 | 0 | 307 | 8.0 | 11.3 | 0.00 | 0.33 | 0.25 | 89 | 1009.6 |
| 20260506161555 | 0 | 316 | 6.4 | 12.9 | 0.00 | 0.33 | 0.25 | 86 | 1009.5 |
| 20260506160049 | 0 | 306 | 3.2 | 12.9 | 0.00 | 0.41 | 0.25 | 85 | 1009.4 |
| 20260506154549 | 0 | 319 | 9.7 | 14.5 | 0.00 | 0.41 | 0.25 | 86 | 1009.3 |
| 20260506153047 | 0 | 286 | 4.8 | 8.0 | 0.00 | 0.41 | 0.25 | 84 | 1009.3 |
| 20260506151547 | 0 | 313 | 3.2 | 6.4 | 0.00 | 0.41 | 0.25 | 82 | 1009.2 |
| 20260506150045 | 0 | 302 | 3.2 | 6.4 | 0.00 | 0.41 | 0.25 | 83 | 1009.2 |
| 20260506144559 | 0 | 314 | 3.2 | 4.8 | 0.00 | 0.41 | 0.25 | 84 | 1009.1 |
| 20260506143042 | 0 | 314 | 0.0 | 3.2 | 0.00 | 0.41 | 0.25 | 84 | 1009.1 |